sensor_id;sensor_type;location;lat;lon;timestamp;P1;durP1;ratioP1;P2;durP2;ratioP2
21743;SDS011;11034;48.556;9.342;2023-11-21T00:00:07;6.53;;;1.65;;
21743;SDS011;11034;48.556;9.342;2023-11-21T00:02:40;5.43;;;1.35;;
21743;SDS011;11034;48.556;9.342;2023-11-21T00:05:08;8.98;;;1.90;;
21743;SDS011;11034;48.556;9.342;2023-11-21T00:07:39;7.88;;;1.63;;
21743;SDS011;11034;48.556;9.342;2023-11-21T00:10:08;6.63;;;1.92;;
21743;SDS011;11034;48.556;9.342;2023-11-21T00:12:39;4.47;;;1.20;;
21743;SDS011;11034;48.556;9.342;2023-11-21T00:15:09;8.10;;;1.42;;
21743;SDS011;11034;48.556;9.342;2023-11-21T00:17:41;6.97;;;1.25;;
21743;SDS011;11034;48.556;9.342;2023-11-21T00:20:10;5.88;;;1.50;;
21743;SDS011;11034;48.556;9.342;2023-11-21T00:22:41;4.20;;;1.10;;
21743;SDS011;11034;48.556;9.342;2023-11-21T00:25:09;4.32;;;1.33;;
21743;SDS011;11034;48.556;9.342;2023-11-21T00:27:39;4.75;;;1.20;;
21743;SDS011;11034;48.556;9.342;2023-11-21T00:30:09;5.15;;;1.20;;
21743;SDS011;11034;48.556;9.342;2023-11-21T00:32:39;2.85;;;0.95;;
21743;SDS011;11034;48.556;9.342;2023-11-21T00:35:10;5.18;;;1.23;;
21743;SDS011;11034;48.556;9.342;2023-11-21T00:37:39;3.67;;;1.00;;
21743;SDS011;11034;48.556;9.342;2023-11-21T00:40:14;4.22;;;1.00;;
21743;SDS011;11034;48.556;9.342;2023-11-21T00:42:47;3.13;;;0.80;;
21743;SDS011;11034;48.556;9.342;2023-11-21T00:45:15;4.70;;;1.10;;
21743;SDS011;11034;48.556;9.342;2023-11-21T00:47:44;3.75;;;0.80;;
21743;SDS011;11034;48.556;9.342;2023-11-21T00:50:14;2.92;;;0.85;;
21743;SDS011;11034;48.556;9.342;2023-11-21T00:52:42;2.97;;;1.23;;
21743;SDS011;11034;48.556;9.342;2023-11-21T00:55:10;3.40;;;0.90;;
21743;SDS011;11034;48.556;9.342;2023-11-21T00:57:39;2.50;;;0.80;;
21743;SDS011;11034;48.556;9.342;2023-11-21T01:00:09;3.17;;;0.88;;
21743;SDS011;11034;48.556;9.342;2023-11-21T01:02:41;2.80;;;0.75;;
21743;SDS011;11034;48.556;9.342;2023-11-21T01:05:10;2.17;;;0.80;;
21743;SDS011;11034;48.556;9.342;2023-11-21T01:07:39;2.33;;;0.80;;
21743;SDS011;11034;48.556;9.342;2023-11-21T01:10:08;4.60;;;0.80;;
21743;SDS011;11034;48.556;9.342;2023-11-21T01:12:37;2.97;;;0.70;;
21743;SDS011;11034;48.556;9.342;2023-11-21T01:15:06;2.03;;;0.70;;
21743;SDS011;11034;48.556;9.342;2023-11-21T01:17:38;3.75;;;0.80;;
21743;SDS011;11034;48.556;9.342;2023-11-21T01:20:08;3.75;;;1.23;;
21743;SDS011;11034;48.556;9.342;2023-11-21T01:22:40;3.25;;;0.70;;
21743;SDS011;11034;48.556;9.342;2023-11-21T01:25:10;4.03;;;0.95;;
21743;SDS011;11034;48.556;9.342;2023-11-21T01:27:41;5.38;;;0.90;;
21743;SDS011;11034;48.556;9.342;2023-11-21T01:30:11;4.20;;;0.77;;
21743;SDS011;11034;48.556;9.342;2023-11-21T01:32:39;2.40;;;0.80;;
21743;SDS011;11034;48.556;9.342;2023-11-21T01:35:08;3.38;;;0.65;;
21743;SDS011;11034;48.556;9.342;2023-11-21T01:37:41;4.35;;;0.80;;
21743;SDS011;11034;48.556;9.342;2023-11-21T01:40:10;2.17;;;0.63;;
21743;SDS011;11034;48.556;9.342;2023-11-21T01:42:41;2.60;;;0.70;;
21743;SDS011;11034;48.556;9.342;2023-11-21T01:45:15;2.40;;;0.65;;
21743;SDS011;11034;48.556;9.342;2023-11-21T01:47:44;1.63;;;0.60;;
21743;SDS011;11034;48.556;9.342;2023-11-21T01:50:14;2.42;;;0.65;;
21743;SDS011;11034;48.556;9.342;2023-11-21T01:52:45;1.90;;;0.63;;
21743;SDS011;11034;48.556;9.342;2023-11-21T01:55:16;3.80;;;0.82;;
21743;SDS011;11034;48.556;9.342;2023-11-21T01:57:54;2.78;;;0.57;;
21743;SDS011;11034;48.556;9.342;2023-11-21T02:00:25;0.43;;;0.38;;
21743;SDS011;11034;48.556;9.342;2023-11-21T02:02:55;3.40;;;0.63;;
21743;SDS011;11034;48.556;9.342;2023-11-21T02:05:24;0.88;;;0.60;;
21743;SDS011;11034;48.556;9.342;2023-11-21T02:07:53;2.25;;;0.70;;
21743;SDS011;11034;48.556;9.342;2023-11-21T02:10:25;1.48;;;0.60;;
21743;SDS011;11034;48.556;9.342;2023-11-21T02:12:54;1.80;;;0.40;;
21743;SDS011;11034;48.556;9.342;2023-11-21T02:15:26;0.98;;;0.45;;
21743;SDS011;11034;48.556;9.342;2023-11-21T02:17:55;1.55;;;0.40;;
21743;SDS011;11034;48.556;9.342;2023-11-21T02:20:30;2.90;;;0.60;;
21743;SDS011;11034;48.556;9.342;2023-11-21T02:23:02;3.03;;;0.40;;
21743;SDS011;11034;48.556;9.342;2023-11-21T02:25:31;1.85;;;0.45;;
21743;SDS011;11034;48.556;9.342;2023-11-21T02:28:02;2.25;;;0.52;;
21743;SDS011;11034;48.556;9.342;2023-11-21T02:30:33;3.38;;;0.50;;
21743;SDS011;11034;48.556;9.342;2023-11-21T02:33:03;2.60;;;0.52;;
21743;SDS011;11034;48.556;9.342;2023-11-21T02:35:31;2.17;;;0.35;;
21743;SDS011;11034;48.556;9.342;2023-11-21T02:38:02;3.22;;;0.50;;
21743;SDS011;11034;48.556;9.342;2023-11-21T02:40:32;0.63;;;0.32;;
21743;SDS011;11034;48.556;9.342;2023-11-21T02:43:01;2.22;;;0.52;;
21743;SDS011;11034;48.556;9.342;2023-11-21T02:45:32;1.25;;;0.40;;
21743;SDS011;11034;48.556;9.342;2023-11-21T02:48:00;1.95;;;0.30;;
21743;SDS011;11034;48.556;9.342;2023-11-21T02:50:28;0.73;;;0.45;;
21743;SDS011;11034;48.556;9.342;2023-11-21T02:52:57;0.98;;;0.45;;
21743;SDS011;11034;48.556;9.342;2023-11-21T02:55:28;0.30;;;0.30;;
21743;SDS011;11034;48.556;9.342;2023-11-21T02:57:57;0.88;;;0.32;;
21743;SDS011;11034;48.556;9.342;2023-11-21T03:00:25;1.55;;;0.50;;
21743;SDS011;11034;48.556;9.342;2023-11-21T03:02:54;0.93;;;0.40;;
21743;SDS011;11034;48.556;9.342;2023-11-21T03:05:24;2.78;;;0.50;;
21743;SDS011;11034;48.556;9.342;2023-11-21T03:07:52;1.35;;;0.30;;
21743;SDS011;11034;48.556;9.342;2023-11-21T03:10:20;0.88;;;0.38;;
21743;SDS011;11034;48.556;9.342;2023-11-21T03:12:51;0.30;;;0.28;;
21743;SDS011;11034;48.556;9.342;2023-11-21T03:15:19;1.20;;;0.35;;
21743;SDS011;11034;48.556;9.342;2023-11-21T03:17:47;0.95;;;0.40;;
21743;SDS011;11034;48.556;9.342;2023-11-21T03:20:16;0.80;;;0.30;;
21743;SDS011;11034;48.556;9.342;2023-11-21T03:22:45;0.50;;;0.40;;
21743;SDS011;11034;48.556;9.342;2023-11-21T03:25:13;1.40;;;0.38;;
21743;SDS011;11034;48.556;9.342;2023-11-21T03:27:43;1.58;;;0.25;;
21743;SDS011;11034;48.556;9.342;2023-11-21T03:30:13;0.30;;;0.22;;
21743;SDS011;11034;48.556;9.342;2023-11-21T03:32:41;2.00;;;0.40;;
21743;SDS011;11034;48.556;9.342;2023-11-21T03:35:09;0.82;;;0.30;;
21743;SDS011;11034;48.556;9.342;2023-11-21T03:37:38;1.33;;;0.40;;
21743;SDS011;11034;48.556;9.342;2023-11-21T03:40:08;1.70;;;0.50;;
21743;SDS011;11034;48.556;9.342;2023-11-21T03:42:39;1.13;;;0.40;;
21743;SDS011;11034;48.556;9.342;2023-11-21T03:45:08;0.40;;;0.20;;
21743;SDS011;11034;48.556;9.342;2023-11-21T03:47:40;0.45;;;0.28;;
21743;SDS011;11034;48.556;9.342;2023-11-21T03:50:09;0.55;;;0.28;;
21743;SDS011;11034;48.556;9.342;2023-11-21T03:52:38;2.08;;;0.68;;
21743;SDS011;11034;48.556;9.342;2023-11-21T03:55:06;0.40;;;0.30;;
21743;SDS011;11034;48.556;9.342;2023-11-21T03:57:35;1.10;;;0.40;;
21743;SDS011;11034;48.556;9.342;2023-11-21T04:00:03;1.17;;;0.38;;
21743;SDS011;11034;48.556;9.342;2023-11-21T04:02:35;0.20;;;0.20;;
21743;SDS011;11034;48.556;9.342;2023-11-21T04:05:05;0.98;;;0.30;;
21743;SDS011;11034;48.556;9.342;2023-11-21T04:07:33;0.93;;;0.38;;
21743;SDS011;11034;48.556;9.342;2023-11-21T04:10:01;0.47;;;0.40;;
21743;SDS011;11034;48.556;9.342;2023-11-21T04:12:30;0.20;;;0.20;;
21743;SDS011;11034;48.556;9.342;2023-11-21T04:14:58;1.08;;;0.30;;
21743;SDS011;11034;48.556;9.342;2023-11-21T04:17:26;0.22;;;0.20;;
21743;SDS011;11034;48.556;9.342;2023-11-21T04:19:54;0.95;;;0.20;;
21743;SDS011;11034;48.556;9.342;2023-11-21T04:22:24;0.10;;;0.10;;
21743;SDS011;11034;48.556;9.342;2023-11-21T04:24:52;0.73;;;0.20;;
21743;SDS011;11034;48.556;9.342;2023-11-21T04:27:22;0.40;;;0.20;;
21743;SDS011;11034;48.556;9.342;2023-11-21T04:29:50;0.82;;;0.30;;
21743;SDS011;11034;48.556;9.342;2023-11-21T04:32:18;0.75;;;0.20;;
21743;SDS011;11034;48.556;9.342;2023-11-21T04:34:46;0.82;;;0.40;;
21743;SDS011;11034;48.556;9.342;2023-11-21T04:37:14;0.50;;;0.30;;
21743;SDS011;11034;48.556;9.342;2023-11-21T04:39:43;0.30;;;0.30;;
21743;SDS011;11034;48.556;9.342;2023-11-21T04:42:12;1.15;;;0.38;;
21743;SDS011;11034;48.556;9.342;2023-11-21T04:44:40;1.48;;;0.43;;
21743;SDS011;11034;48.556;9.342;2023-11-21T04:47:08;0.95;;;0.60;;
21743;SDS011;11034;48.556;9.342;2023-11-21T04:49:36;1.38;;;0.30;;
21743;SDS011;11034;48.556;9.342;2023-11-21T04:52:04;0.55;;;0.35;;
21743;SDS011;11034;48.556;9.342;2023-11-21T04:54:33;0.55;;;0.38;;
21743;SDS011;11034;48.556;9.342;2023-11-21T04:57:03;0.60;;;0.30;;
21743;SDS011;11034;48.556;9.342;2023-11-21T04:59:33;0.57;;;0.28;;
21743;SDS011;11034;48.556;9.342;2023-11-21T05:02:01;0.70;;;0.30;;
21743;SDS011;11034;48.556;9.342;2023-11-21T05:04:31;1.13;;;0.32;;
21743;SDS011;11034;48.556;9.342;2023-11-21T05:06:59;1.30;;;0.25;;
21743;SDS011;11034;48.556;9.342;2023-11-21T05:09:30;0.65;;;0.30;;
21743;SDS011;11034;48.556;9.342;2023-11-21T05:11:59;1.13;;;0.30;;
21743;SDS011;11034;48.556;9.342;2023-11-21T05:14:29;0.98;;;0.22;;
21743;SDS011;11034;48.556;9.342;2023-11-21T05:16:57;0.47;;;0.22;;
21743;SDS011;11034;48.556;9.342;2023-11-21T05:19:25;0.80;;;0.30;;
21743;SDS011;11034;48.556;9.342;2023-11-21T05:21:53;0.60;;;0.52;;
21743;SDS011;11034;48.556;9.342;2023-11-21T05:24:21;2.47;;;0.50;;
21743;SDS011;11034;48.556;9.342;2023-11-21T05:26:50;0.52;;;0.45;;
21743;SDS011;11034;48.556;9.342;2023-11-21T05:29:19;0.63;;;0.38;;
21743;SDS011;11034;48.556;9.342;2023-11-21T05:31:48;3.85;;;3.30;;
21743;SDS011;11034;48.556;9.342;2023-11-21T05:34:17;0.85;;;0.60;;
21743;SDS011;11034;48.556;9.342;2023-11-21T05:36:47;2.17;;;1.65;;
21743;SDS011;11034;48.556;9.342;2023-11-21T05:39:15;3.67;;;1.35;;
21743;SDS011;11034;48.556;9.342;2023-11-21T05:41:45;3.85;;;1.50;;
21743;SDS011;11034;48.556;9.342;2023-11-21T05:44:15;5.38;;;1.65;;
21743;SDS011;11034;48.556;9.342;2023-11-21T05:46:44;1.65;;;1.10;;
21743;SDS011;11034;48.556;9.342;2023-11-21T05:49:14;2.55;;;0.80;;
21743;SDS011;11034;48.556;9.342;2023-11-21T05:51:43;2.13;;;0.70;;
21743;SDS011;11034;48.556;9.342;2023-11-21T05:54:14;1.77;;;0.88;;
21743;SDS011;11034;48.556;9.342;2023-11-21T05:56:43;1.77;;;0.55;;
21743;SDS011;11034;48.556;9.342;2023-11-21T05:59:21;1.05;;;0.77;;
21743;SDS011;11034;48.556;9.342;2023-11-21T06:01:49;1.40;;;0.55;;
21743;SDS011;11034;48.556;9.342;2023-11-21T06:04:20;1.67;;;0.80;;
21743;SDS011;11034;48.556;9.342;2023-11-21T06:06:51;1.85;;;0.70;;
21743;SDS011;11034;48.556;9.342;2023-11-21T06:09:20;2.58;;;0.80;;
21743;SDS011;11034;48.556;9.342;2023-11-21T06:11:49;1.70;;;0.50;;
21743;SDS011;11034;48.556;9.342;2023-11-21T06:14:17;5.60;;;3.97;;
21743;SDS011;11034;48.556;9.342;2023-11-21T06:16:48;1.40;;;0.80;;
21743;SDS011;11034;48.556;9.342;2023-11-21T06:19:17;2.65;;;0.90;;
21743;SDS011;11034;48.556;9.342;2023-11-21T06:21:47;1.88;;;0.80;;
21743;SDS011;11034;48.556;9.342;2023-11-21T06:30:59;1.25;;;0.80;;
21743;SDS011;11034;48.556;9.342;2023-11-21T06:33:31;2.47;;;1.30;;
21743;SDS011;11034;48.556;9.342;2023-11-21T06:35:59;1.00;;;0.60;;
21743;SDS011;11034;48.556;9.342;2023-11-21T06:38:30;2.08;;;1.00;;
21743;SDS011;11034;48.556;9.342;2023-11-21T06:40:58;6.70;;;5.07;;
21743;SDS011;11034;48.556;9.342;2023-11-21T06:43:28;3.17;;;2.15;;
21743;SDS011;11034;48.556;9.342;2023-11-21T06:45:57;6.03;;;4.18;;
21743;SDS011;11034;48.556;9.342;2023-11-21T06:48:26;3.85;;;2.53;;
21743;SDS011;11034;48.556;9.342;2023-11-21T06:50:54;1.52;;;0.75;;
21743;SDS011;11034;48.556;9.342;2023-11-21T06:53:22;0.52;;;0.52;;
21743;SDS011;11034;48.556;9.342;2023-11-21T06:55:52;2.33;;;1.00;;
21743;SDS011;11034;48.556;9.342;2023-11-21T06:58:20;2.20;;;1.20;;
21743;SDS011;11034;48.556;9.342;2023-11-21T07:00:48;1.02;;;0.80;;
21743;SDS011;11034;48.556;9.342;2023-11-21T07:03:20;3.03;;;1.15;;
21743;SDS011;11034;48.556;9.342;2023-11-21T07:05:48;1.60;;;0.70;;
21743;SDS011;11034;48.556;9.342;2023-11-21T07:08:16;2.72;;;0.70;;
21743;SDS011;11034;48.556;9.342;2023-11-21T07:10:44;0.70;;;0.60;;
21743;SDS011;11034;48.556;9.342;2023-11-21T07:13:15;3.00;;;1.30;;
21743;SDS011;11034;48.556;9.342;2023-11-21T07:15:43;2.97;;;0.63;;
21743;SDS011;11034;48.556;9.342;2023-11-21T07:18:11;1.35;;;0.70;;
21743;SDS011;11034;48.556;9.342;2023-11-21T07:20:39;1.10;;;0.70;;
21743;SDS011;11034;48.556;9.342;2023-11-21T07:23:08;1.25;;;0.60;;
21743;SDS011;11034;48.556;9.342;2023-11-21T07:25:36;1.25;;;1.00;;
21743;SDS011;11034;48.556;9.342;2023-11-21T07:41:59;13.40;;;7.00;;
21743;SDS011;11034;48.556;9.342;2023-11-21T07:45:12;11.60;;;7.70;;
21743;SDS011;11034;48.556;9.342;2023-11-21T07:48:10;3.92;;;2.17;;
21743;SDS011;11034;48.556;9.342;2023-11-21T07:51:16;4.95;;;3.03;;
21743;SDS011;11034;48.556;9.342;2023-11-21T07:54:02;8.23;;;5.97;;
21743;SDS011;11034;48.556;9.342;2023-11-21T07:56:39;17.33;;;11.05;;
21743;SDS011;11034;48.556;9.342;2023-11-21T08:03:36;5.40;;;1.45;;
21743;SDS011;11034;48.556;9.342;2023-11-21T08:06:34;1.60;;;1.50;;
21743;SDS011;11034;48.556;9.342;2023-11-21T08:09:44;2.45;;;1.30;;
21743;SDS011;11034;48.556;9.342;2023-11-21T08:12:50;1.85;;;1.40;;
21743;SDS011;11034;48.556;9.342;2023-11-21T08:15:50;1.58;;;1.13;;
21743;SDS011;11034;48.556;9.342;2023-11-21T08:18:57;1.70;;;0.80;;
21743;SDS011;11034;48.556;9.342;2023-11-21T08:32:56;1.73;;;1.10;;
21743;SDS011;11034;48.556;9.342;2023-11-21T08:40:36;3.15;;;1.30;;
21743;SDS011;11034;48.556;9.342;2023-11-21T08:44:15;1.75;;;0.90;;
21743;SDS011;11034;48.556;9.342;2023-11-21T08:47:57;3.35;;;1.60;;
21743;SDS011;11034;48.556;9.342;2023-11-21T08:51:55;3.33;;;1.20;;
21743;SDS011;11034;48.556;9.342;2023-11-21T08:58:43;1.23;;;0.98;;
21743;SDS011;11034;48.556;9.342;2023-11-21T09:01:21;1.77;;;0.93;;
21743;SDS011;11034;48.556;9.342;2023-11-21T09:04:02;1.75;;;0.70;;
21743;SDS011;11034;48.556;9.342;2023-11-21T09:06:49;2.45;;;0.80;;
21743;SDS011;11034;48.556;9.342;2023-11-21T09:09:49;2.53;;;1.42;;
21743;SDS011;11034;48.556;9.342;2023-11-21T09:12:22;1.85;;;0.80;;
21743;SDS011;11034;48.556;9.342;2023-11-21T09:38:03;1.08;;;0.90;;
21743;SDS011;11034;48.556;9.342;2023-11-21T09:45:32;2.15;;;0.88;;
21743;SDS011;11034;48.556;9.342;2023-11-21T10:45:53;1.30;;;0.90;;
21743;SDS011;11034;48.556;9.342;2023-11-21T11:00:33;1.52;;;1.17;;
21743;SDS011;11034;48.556;9.342;2023-11-21T11:11:33;1.60;;;0.88;;
21743;SDS011;11034;48.556;9.342;2023-11-21T11:15:06;3.17;;;1.00;;
21743;SDS011;11034;48.556;9.342;2023-11-21T11:37:39;1.00;;;0.50;;
21743;SDS011;11034;48.556;9.342;2023-11-21T11:43:43;2.03;;;1.20;;
21743;SDS011;11034;48.556;9.342;2023-11-21T11:47:00;2.08;;;0.93;;
21743;SDS011;11034;48.556;9.342;2023-11-21T11:49:32;3.28;;;1.10;;
21743;SDS011;11034;48.556;9.342;2023-11-21T11:57:57;4.03;;;2.53;;
21743;SDS011;11034;48.556;9.342;2023-11-21T12:00:33;3.78;;;2.10;;
21743;SDS011;11034;48.556;9.342;2023-11-21T12:03:10;5.53;;;3.67;;
21743;SDS011;11034;48.556;9.342;2023-11-21T12:06:11;6.97;;;3.60;;
21743;SDS011;11034;48.556;9.342;2023-11-21T12:13:11;2.15;;;1.90;;
21743;SDS011;11034;48.556;9.342;2023-11-21T12:15:40;4.72;;;2.53;;
21743;SDS011;11034;48.556;9.342;2023-11-21T12:18:08;2.15;;;1.10;;
21743;SDS011;11034;48.556;9.342;2023-11-21T12:20:37;1.60;;;1.35;;
21743;SDS011;11034;48.556;9.342;2023-11-21T12:23:07;1.80;;;1.60;;
21743;SDS011;11034;48.556;9.342;2023-11-21T12:25:37;3.45;;;1.80;;
21743;SDS011;11034;48.556;9.342;2023-11-21T12:28:08;3.47;;;1.55;;
21743;SDS011;11034;48.556;9.342;2023-11-21T12:30:38;1.98;;;1.35;;
21743;SDS011;11034;48.556;9.342;2023-11-21T12:33:06;1.50;;;1.30;;
21743;SDS011;11034;48.556;9.342;2023-11-21T12:35:36;3.80;;;1.80;;
21743;SDS011;11034;48.556;9.342;2023-11-21T12:38:05;2.53;;;2.10;;
21743;SDS011;11034;48.556;9.342;2023-11-21T12:40:35;2.40;;;1.48;;
21743;SDS011;11034;48.556;9.342;2023-11-21T12:43:04;3.20;;;2.03;;
21743;SDS011;11034;48.556;9.342;2023-11-21T12:45:36;5.40;;;2.70;;
21743;SDS011;11034;48.556;9.342;2023-11-21T12:48:06;3.53;;;2.30;;
21743;SDS011;11034;48.556;9.342;2023-11-21T12:50:35;4.95;;;2.60;;
21743;SDS011;11034;48.556;9.342;2023-11-21T12:53:06;3.63;;;2.30;;
21743;SDS011;11034;48.556;9.342;2023-11-21T12:55:37;5.80;;;3.53;;
21743;SDS011;11034;48.556;9.342;2023-11-21T12:59:31;6.25;;;4.30;;
21743;SDS011;11034;48.556;9.342;2023-11-21T14:02:23;2.13;;;1.65;;
21743;SDS011;11034;48.556;9.342;2023-11-21T14:05:03;1.95;;;1.52;;
21743;SDS011;11034;48.556;9.342;2023-11-21T14:07:39;2.80;;;1.50;;
21743;SDS011;11034;48.556;9.342;2023-11-21T14:10:14;2.50;;;1.92;;
21743;SDS011;11034;48.556;9.342;2023-11-21T14:12:50;1.85;;;1.55;;
21743;SDS011;11034;48.556;9.342;2023-11-21T14:15:20;3.42;;;1.73;;
21743;SDS011;11034;48.556;9.342;2023-11-21T14:21:51;1.63;;;1.40;;
21743;SDS011;11034;48.556;9.342;2023-11-21T14:24:19;2.60;;;1.92;;
21743;SDS011;11034;48.556;9.342;2023-11-21T14:26:51;5.13;;;3.72;;
21743;SDS011;11034;48.556;9.342;2023-11-21T14:29:20;3.97;;;2.20;;
21743;SDS011;11034;48.556;9.342;2023-11-21T14:31:53;13.50;;;12.20;;
21743;SDS011;11034;48.556;9.342;2023-11-21T14:34:52;2.92;;;1.52;;
21743;SDS011;11034;48.556;9.342;2023-11-21T14:37:25;2.00;;;1.80;;
21743;SDS011;11034;48.556;9.342;2023-11-21T14:39:56;3.88;;;1.80;;
21743;SDS011;11034;48.556;9.342;2023-11-21T14:42:24;2.42;;;2.10;;
21743;SDS011;11034;48.556;9.342;2023-11-21T14:45:10;3.67;;;3.15;;
21743;SDS011;11034;48.556;9.342;2023-11-21T14:48:18;5.50;;;3.83;;
21743;SDS011;11034;48.556;9.342;2023-11-21T14:51:03;6.15;;;3.72;;
21743;SDS011;11034;48.556;9.342;2023-11-21T14:53:58;4.57;;;3.63;;
21743;SDS011;11034;48.556;9.342;2023-11-21T14:56:32;5.57;;;4.50;;
21743;SDS011;11034;48.556;9.342;2023-11-21T14:59:01;4.22;;;3.83;;
21743;SDS011;11034;48.556;9.342;2023-11-21T15:01:31;4.93;;;3.90;;
21743;SDS011;11034;48.556;9.342;2023-11-21T15:04:11;5.40;;;3.80;;
21743;SDS011;11034;48.556;9.342;2023-11-21T15:06:51;6.28;;;5.05;;
21743;SDS011;11034;48.556;9.342;2023-11-21T15:09:21;8.68;;;6.50;;
21743;SDS011;11034;48.556;9.342;2023-11-21T15:12:03;6.18;;;5.18;;
21743;SDS011;11034;48.556;9.342;2023-11-21T15:14:43;7.20;;;5.78;;
21743;SDS011;11034;48.556;9.342;2023-11-21T15:17:14;8.63;;;6.25;;
21743;SDS011;11034;48.556;9.342;2023-11-21T15:19:50;6.30;;;4.90;;
21743;SDS011;11034;48.556;9.342;2023-11-21T15:22:18;6.88;;;4.60;;
21743;SDS011;11034;48.556;9.342;2023-11-21T15:24:48;4.20;;;3.50;;
21743;SDS011;11034;48.556;9.342;2023-11-21T15:27:16;5.45;;;4.47;;
21743;SDS011;11034;48.556;9.342;2023-11-21T15:29:45;14.38;;;8.48;;
21743;SDS011;11034;48.556;9.342;2023-11-21T15:32:13;11.93;;;6.75;;
21743;SDS011;11034;48.556;9.342;2023-11-21T15:34:41;9.60;;;6.07;;
21743;SDS011;11034;48.556;9.342;2023-11-21T15:37:10;24.02;;;16.67;;
21743;SDS011;11034;48.556;9.342;2023-11-21T15:39:41;18.40;;;11.30;;
21743;SDS011;11034;48.556;9.342;2023-11-21T15:42:14;6.60;;;4.75;;
21743;SDS011;11034;48.556;9.342;2023-11-21T15:44:42;7.82;;;4.78;;
21743;SDS011;11034;48.556;9.342;2023-11-21T15:47:11;6.13;;;4.35;;
21743;SDS011;11034;48.556;9.342;2023-11-21T15:49:39;7.20;;;4.93;;
21743;SDS011;11034;48.556;9.342;2023-11-21T15:52:07;7.60;;;5.97;;
21743;SDS011;11034;48.556;9.342;2023-11-21T15:54:37;12.75;;;9.70;;
21743;SDS011;11034;48.556;9.342;2023-11-21T15:57:07;12.48;;;8.85;;
21743;SDS011;11034;48.556;9.342;2023-11-21T15:59:41;10.35;;;9.02;;
21743;SDS011;11034;48.556;9.342;2023-11-21T16:06:09;14.52;;;11.25;;
21743;SDS011;11034;48.556;9.342;2023-11-21T16:08:46;25.88;;;13.45;;
21743;SDS011;11034;48.556;9.342;2023-11-21T16:11:48;21.50;;;11.52;;
21743;SDS011;11034;48.556;9.342;2023-11-21T16:14:20;55.15;;;13.63;;
21743;SDS011;11034;48.556;9.342;2023-11-21T16:16:57;37.13;;;21.95;;
21743;SDS011;11034;48.556;9.342;2023-11-21T16:19:31;51.45;;;28.45;;
21743;SDS011;11034;48.556;9.342;2023-11-21T16:22:02;17.33;;;12.73;;
21743;SDS011;11034;48.556;9.342;2023-11-21T16:25:01;15.98;;;12.10;;
21743;SDS011;11034;48.556;9.342;2023-11-21T16:29:06;25.85;;;17.33;;
21743;SDS011;11034;48.556;9.342;2023-11-21T17:10:15;45.85;;;31.60;;
21743;SDS011;11034;48.556;9.342;2023-11-21T17:33:19;31.27;;;19.85;;
21743;SDS011;11034;48.556;9.342;2023-11-21T17:46:50;31.50;;;20.20;;
21743;SDS011;11034;48.556;9.342;2023-11-21T17:50:02;38.03;;;22.15;;
21743;SDS011;11034;48.556;9.342;2023-11-21T18:13:51;25.50;;;14.88;;
21743;SDS011;11034;48.556;9.342;2023-11-21T18:22:58;24.30;;;15.00;;
21743;SDS011;11034;48.556;9.342;2023-11-21T18:31:58;22.60;;;13.98;;
21743;SDS011;11034;48.556;9.342;2023-11-21T19:53:26;47.40;;;23.70;;
21743;SDS011;11034;48.556;9.342;2023-11-21T19:56:00;53.60;;;29.30;;
21743;SDS011;11034;48.556;9.342;2023-11-21T19:58:40;44.97;;;26.10;;
21743;SDS011;11034;48.556;9.342;2023-11-21T20:01:09;40.53;;;22.67;;
21743;SDS011;11034;48.556;9.342;2023-11-21T20:14:03;36.65;;;20.48;;
21743;SDS011;11034;48.556;9.342;2023-11-21T20:20:37;34.20;;;20.85;;
21743;SDS011;11034;48.556;9.342;2023-11-21T22:06:12;50.83;;;26.90;;
21743;SDS011;11034;48.556;9.342;2023-11-21T22:09:05;43.00;;;24.48;;
21743;SDS011;11034;48.556;9.342;2023-11-21T22:12:30;41.15;;;24.88;;
